Mount Pleasant, TX (75455)

10:25 PM CST en Noviembre 22, 2014 (GMT -0600)
Union Hill Road at CR 4640 | Change Station
CLOSE
Current Station
Estación meteorológica personal
Location: Mount Pleasant, TX
Altura: 425 ft
Estaciones meteorológicas cercanas

Alt 425 ft 33.09 °N, 94.90 °W | Updated 3 seconds ago

Lluvia
Lluvia
61.0 ° F
Sensación térmica 61.0 ° F
N
2.0
Viento Variable Viento desde ESE
Gusts 3.0 mph

Hoy
Alta -- | Baja -- ° F
--% Posibilidad de precipitaciones
Ayer
Alta -- | Baja -- ° F
Precip. -- pul
6:57 AM 5:14 PM
Luna nueva, 1% visible
Presión 29.85 pul
Visibilidad 5.0 Millas
Nubes Nublado 700 ft
Punto de rocío 60 ° F
Humedad 95%
Precipitaciones 0.35 pul
Espesor de la nieve No disponible.
UV 0 de una escala de 12
Polen 1.20 de una escala de 12
Calidad del aire No disponible.
Flu Activity No disponible.
METAR KOSA 230415Z AUTO 00000KT 5SM OVC007 16/16 A2985 RMK AO1 P0001 T01620160

More Conditions Fewer Conditions

Presión 29.85 pul
Visibilidad 5.0 Millas
Nubes Nublado 700 ft
Punto de rocío 60 ° F
Humedad 95%
Precipitaciones 0.35 pul
Espesor de la nieve No disponible.
UV 0 de una escala de 12
Polen 1.20 de una escala de 12
Calidad del aire No disponible.
Flu Activity No disponible.
METAR KOSA 230415Z AUTO 00000KT 5SM OVC007 16/16 A2985 RMK AO1 P0001 T01620160

More Conditions Fewer Conditions

Nowcast | as of 10:13 PM CST on November 22, 2014

Through 1130 PM CST...look for a large area of rain and embedded thunderstorms across the four state area to continue moving to the northeast at 30 mph. Expect gusty winds to near 30 mph along with deadly lightning and locally heavy rainfall amounts of one quarter to one half inch per hour with isolated amounts to near six tenths of an inch. Other rainfall amounts will range from one tenth to one quarter of an inch. Some of the heavier rains will affect communities from near Ashdown and Fulton south to Kiblah and Bradley Arkansas. Also from De Kalb and Texarkana to Douglassville and Atlanta...to Marshall and Waskom...and Carthage...Gary city... and Martinsville Texas...and from Rodessa and Plain Dealing to Greenwood...Shreveport and Sligo Louisiana.

×

10-Day Weather Forecast

Almanac

Astronomía

Nov. 22, 2014 Salida Puesta
Hora real
Crepúsculo civil
Crepúsculo náutico
Crepúsculo astronómico
Luna
Horas de luz
Horas de luz
Tomorrow will be .
, % of the Moon is Illuminated

Extremos de hoy

Máximos del estado Bajos del estado

Community

WunderPhotos

Upload Photos

1,772,997 ¡fotos cargadas!

WunderBlogs® & News

Nearby

Calidad del aire

  Calidad del aire Índice AQ Contaminante
Not available.

Grosos de nieve

Estación Profundido Altura

Actividad de terremotos

Ciudad Distance Mag. Tiempo y dato
Magnitud mínima muestra es 2,5.

Temperaturas de aguas costeras

Lugar Temperatura

Estaciones meteorológicas cercanas